KDLF/DLF METAR and TAF weather

Enter ICAO airport designator
Station Type Date Time Source
KDLF METAR 2019/04/25 20:56 UTC NOAA

KDLF 252056Z AUTO 00000KT 10SM CLR 31/11 A2990 RMK AO2 DZB1957E04 SLP116 P0000 60000 T03130106 57013


Station Type Date Time Source
KDLF Decoded METAR 2019/04/25 20:56 UTC NOAA

Laughlin, Laughlin Air Force Base Auxiliary Airfield, TX, United States (KDLF) 29-07-00N 100-28-00W 294M
Apr 25, 2019 - 04:56 PM EDT / 2019.04.25 2056 UTC
Wind: Calm:0
Visibility: 10 mile(s):0
Sky conditions: clear
Precipitation last hour: A trace
Temperature: 88.3 F (31.3 C)
Dew Point: 51.1 F (10.6 C)
Relative Humidity: 27%
Pressure (altimeter): 29.9 in. Hg (1012 hPa)
Pressure tendency: 0.04 inches (1.3 hPa) lower than three hours ago
ob: KDLF 252056Z AUTO 00000KT 10SM CLR 31/11 A2990 RMK AO2 DZB1957E04 SLP116 P0000 60000 T03130106 57013
cycle: 21

Station Type Date Time Source
KDLF TAF 2019/04/25 18:12 UTC NOAA

TAF KDLF 251800Z 2518/2624 30006KT 9999 SKC QNH2986INS
BECMG 2600/2601 VRB04KT 9999 SKC QNH2988INS
BECMG 2614/2615 13012KT 9999 FEW250 QNH2998INS TX32/2520Z TN15/2611Z

Example: see airport list